createdAt,value
2022-11-28T00:01:18.715Z,43.35
2022-11-28T00:03:45.162Z,46.47
2022-11-28T00:06:11.936Z,43.90
2022-11-28T00:08:38.513Z,47.65
2022-11-28T00:11:07.911Z,52.28
2022-11-28T00:13:34.849Z,51.20
2022-11-28T00:16:03.617Z,46.97
2022-11-28T00:18:31.037Z,48.33
2022-11-28T00:21:07.136Z,43.30
2022-11-28T00:23:33.764Z,42.30
2022-11-28T00:26:09.919Z,40.83
2022-11-28T00:28:37.352Z,41.72
2022-11-28T00:31:04.237Z,39.20
2022-11-28T00:33:31.740Z,42.70
2022-11-28T00:36:02.686Z,38.33
2022-11-28T00:38:29.944Z,39.03
2022-11-28T00:41:11.045Z,38.35
2022-11-28T00:43:37.795Z,33.83
2022-11-28T00:46:04.562Z,34.00
2022-11-28T00:48:32.796Z,36.42
2022-11-28T00:51:09.424Z,39.90
2022-11-28T00:53:37.014Z,38.10
2022-11-28T00:56:07.633Z,38.20
2022-11-28T00:58:35.412Z,36.40
2022-11-28T01:01:18.822Z,36.78
2022-11-28T01:03:46.377Z,38.83
2022-11-28T01:06:13.159Z,37.65
2022-11-28T01:08:39.586Z,38.73
2022-11-28T01:11:12.146Z,34.65
2022-11-28T01:13:39.325Z,30.40
2022-11-28T01:16:06.134Z,32.67
2022-11-28T01:18:32.655Z,33.60
2022-11-28T01:20:59.078Z,32.77
2022-11-28T01:23:25.551Z,35.10
2022-11-28T01:25:52.096Z,34.38
2022-11-28T01:28:18.557Z,35.22
2022-11-28T01:30:45.106Z,34.63
2022-11-28T01:33:11.570Z,33.20
2022-11-28T01:35:38.010Z,32.15
2022-11-28T01:38:04.388Z,34.33
2022-11-28T01:40:30.842Z,28.38
2022-11-28T01:42:57.333Z,33.50
2022-11-28T01:45:33.602Z,29.10
2022-11-28T01:48:02.893Z,31.83
2022-11-28T01:50:32.924Z,27.63
2022-11-28T01:53:03.492Z,25.35
2022-11-28T01:55:33.759Z,26.58
2022-11-28T01:58:00.373Z,25.73
2022-11-28T02:00:28.208Z,26.60
2022-11-28T02:03:05.830Z,26.70
2022-11-28T02:05:33.042Z,25.75
2022-11-28T02:07:59.664Z,24.98
2022-11-28T02:10:43.908Z,23.13
2022-11-28T02:13:22.435Z,24.50
2022-11-28T02:16:09.552Z,25.27
2022-11-28T02:18:50.182Z,21.70
2022-11-28T02:21:32.284Z,25.50
2022-11-28T02:24:16.992Z,24.97
2022-11-28T02:26:56.802Z,23.13
2022-11-28T02:29:23.162Z,22.23
2022-11-28T02:32:31.371Z,24.27
2022-11-28T02:35:30.041Z,24.25
2022-11-28T02:38:16.699Z,28.43
2022-11-28T02:41:19.380Z,26.38
2022-11-28T02:44:01.483Z,27.27
2022-11-28T02:46:40.931Z,26.17
2022-11-28T02:49:29.838Z,27.95
2022-11-28T02:52:03.288Z,25.43
2022-11-28T02:54:30.111Z,27.40
2022-11-28T02:56:56.649Z,27.08
2022-11-28T02:59:33.429Z,24.70
2022-11-28T03:02:01.308Z,27.27
2022-11-28T03:04:36.834Z,26.07
2022-11-28T03:07:22.135Z,28.05
2022-11-28T03:10:13.451Z,28.40
2022-11-28T03:13:06.316Z,27.20
2022-11-28T03:15:49.630Z,28.45
2022-11-28T03:18:24.582Z,27.30
2022-11-28T03:21:01.464Z,24.23
2022-11-28T03:23:42.705Z,27.05
2022-11-28T03:26:21.208Z,31.40
2022-11-28T03:29:12.362Z,28.33
2022-11-28T03:31:54.703Z,29.90
2022-11-28T03:34:24.730Z,28.58
2022-11-28T03:36:56.862Z,30.30
2022-11-28T03:39:28.857Z,26.98
2022-11-28T03:42:02.952Z,31.48
2022-11-28T03:44:35.618Z,29.80
2022-11-28T03:47:05.138Z,32.72
2022-11-28T03:49:39.131Z,29.90
2022-11-28T03:52:08.121Z,33.25
2022-11-28T03:54:40.711Z,37.35
2022-11-28T03:57:38.241Z,37.70
2022-11-28T04:00:08.046Z,40.10
2022-11-28T04:02:41.268Z,42.92
2022-11-28T04:05:27.672Z,39.90
2022-11-28T04:08:02.098Z,43.63
2022-11-28T04:10:45.528Z,41.60
2022-11-28T04:13:26.414Z,42.85
2022-11-28T04:16:05.091Z,42.72
2022-11-28T04:18:50.063Z,48.05
2022-11-28T04:21:22.632Z,46.78
2022-11-28T04:23:51.002Z,50.07
2022-11-28T04:26:22.621Z,51.70
2022-11-28T04:28:52.333Z,50.50
2022-11-28T04:31:21.176Z,53.47
2022-11-28T04:33:53.363Z,52.08
2022-11-28T04:36:22.609Z,58.43
2022-11-28T04:38:50.983Z,51.35
2022-11-28T04:41:22.465Z,55.65
2022-11-28T04:43:55.522Z,60.50
2022-11-28T04:46:26.812Z,58.38
2022-11-28T04:48:53.520Z,60.63
2022-11-28T04:51:38.122Z,56.78
2022-11-28T04:54:16.908Z,61.28
2022-11-28T04:56:55.973Z,61.28
2022-11-28T04:59:26.150Z,65.57
2022-11-28T05:01:52.689Z,64.17
2022-11-28T05:04:19.248Z,63.92
2022-11-28T05:06:45.742Z,58.85
2022-11-28T05:09:12.960Z,66.55
2022-11-28T05:11:39.660Z,70.85
2022-11-28T05:14:06.648Z,69.03
2022-11-28T05:16:33.322Z,60.92
2022-11-28T05:18:59.842Z,57.70
2022-11-28T05:21:26.284Z,71.75
2022-11-28T05:23:52.829Z,68.45
2022-11-28T05:26:21.213Z,65.40
2022-11-28T05:28:50.453Z,66.47
2022-11-28T05:31:18.823Z,73.97
2022-11-28T05:33:45.553Z,76.22
2022-11-28T05:36:13.851Z,77.00
2022-11-28T05:38:40.997Z,77.37
2022-11-28T05:41:07.640Z,76.07
2022-11-28T05:43:34.728Z,79.53
2022-11-28T05:46:01.261Z,86.25
2022-11-28T05:48:27.838Z,84.38
2022-11-28T05:50:54.404Z,81.40
2022-11-28T05:53:20.978Z,80.85
2022-11-28T05:55:47.600Z,90.68
2022-11-28T05:58:14.119Z,85.10
2022-11-28T06:00:40.691Z,79.28
2022-11-28T06:03:07.152Z,90.63
2022-11-28T06:05:43.193Z,89.50
2022-11-28T06:08:13.611Z,86.70
2022-11-28T06:10:40.744Z,96.82
2022-11-28T06:13:07.642Z,88.00
2022-11-28T06:15:37.955Z,90.50
2022-11-28T06:18:04.959Z,89.88
2022-11-28T06:20:31.420Z,91.32
2022-11-28T06:22:57.836Z,93.43
2022-11-28T06:25:24.500Z,81.95
2022-11-28T06:27:50.937Z,98.53
2022-11-28T06:30:17.521Z,86.90
2022-11-28T06:32:43.971Z,89.78
2022-11-28T06:35:10.450Z,87.63
2022-11-28T06:37:36.888Z,85.97
2022-11-28T06:40:06.135Z,82.57
2022-11-28T06:42:35.196Z,74.97
2022-11-28T06:45:02.628Z,84.80
2022-11-28T06:47:29.041Z,76.78
2022-11-28T06:49:55.904Z,75.78
2022-11-28T06:52:22.472Z,79.90
2022-11-28T06:54:48.881Z,75.53
2022-11-28T06:57:16.232Z,76.75
2022-11-28T06:59:42.972Z,88.65
2022-11-28T07:02:11.670Z,87.65
2022-11-28T07:04:38.365Z,92.30
2022-11-28T07:07:05.016Z,89.93
2022-11-28T07:09:31.554Z,99.20
2022-11-28T07:11:58.080Z,98.63
2022-11-28T07:14:24.584Z,99.00
2022-11-28T07:16:51.155Z,120.63
2022-11-28T07:19:17.720Z,110.20
2022-11-28T07:21:44.203Z,112.15
2022-11-28T07:24:10.645Z,116.07
2022-11-28T07:26:37.111Z,115.05
2022-11-28T07:29:03.802Z,140.60
2022-11-28T07:31:30.274Z,131.38
2022-11-28T07:33:56.774Z,128.10
2022-11-28T07:36:25.761Z,116.43
2022-11-28T07:38:55.191Z,126.22
2022-11-28T07:41:26.484Z,141.13
2022-11-28T07:43:56.151Z,140.18
2022-11-28T07:46:23.967Z,141.70
2022-11-28T07:48:50.618Z,137.35
2022-11-28T07:51:26.538Z,159.25
2022-11-28T07:53:53.145Z,153.73
2022-11-28T07:56:22.507Z,141.15
2022-11-28T07:58:49.617Z,158.63
2022-11-28T08:01:30.561Z,133.60
2022-11-28T08:03:57.891Z,117.10
2022-11-28T08:06:27.503Z,134.93
2022-11-28T08:08:55.372Z,135.77
2022-11-28T08:11:24.085Z,135.80
2022-11-28T08:13:52.824Z,116.85
2022-11-28T08:16:23.490Z,114.25
2022-11-28T08:18:51.653Z,131.47
2022-11-28T08:21:24.189Z,147.35
2022-11-28T08:23:51.601Z,153.23
2022-11-28T08:26:20.112Z,139.02
2022-11-28T08:28:46.961Z,169.95
2022-11-28T08:31:13.494Z,137.93
2022-11-28T08:33:40.628Z,136.57
2022-11-28T08:36:09.726Z,133.50
2022-11-28T08:38:37.172Z,134.35
2022-11-28T08:41:05.764Z,129.77
2022-11-28T08:43:33.897Z,138.57
2022-11-28T08:46:00.660Z,139.10
2022-11-28T08:48:27.193Z,130.45
2022-11-28T08:50:53.784Z,107.07
2022-11-28T08:53:20.335Z,135.10
2022-11-28T08:55:46.839Z,110.90
2022-11-28T08:58:13.958Z,144.85
2022-11-28T09:00:41.836Z,141.43
2022-11-28T09:03:13.276Z,135.85
2022-11-28T09:05:39.787Z,123.50
2022-11-28T09:08:10.274Z,140.10
2022-11-28T09:10:39.928Z,128.65
2022-11-28T09:13:07.246Z,130.70
2022-11-28T09:15:33.995Z,135.90
2022-11-28T09:18:01.364Z,127.90
2022-11-28T09:20:27.780Z,129.37
2022-11-28T09:22:54.286Z,114.13
2022-11-28T09:25:20.752Z,129.38
2022-11-28T09:27:47.275Z,130.60
2022-11-28T09:30:14.184Z,120.50
2022-11-28T09:32:40.775Z,115.43
2022-11-28T09:35:07.544Z,118.72
2022-11-28T09:37:34.010Z,128.63
2022-11-28T09:40:14.394Z,109.63
2022-11-28T09:42:42.560Z,121.50
2022-11-28T09:45:19.156Z,105.50
2022-11-28T09:47:49.995Z,104.95
2022-11-28T09:50:21.237Z,104.65
2022-11-28T09:53:03.651Z,101.70
2022-11-28T09:56:11.035Z,101.80
2022-11-28T09:58:50.271Z,90.37
2022-11-28T10:01:38.252Z,101.57
2022-11-28T10:04:22.791Z,83.43
2022-11-28T10:07:27.594Z,94.22
2022-11-28T10:10:14.705Z,91.00
2022-11-28T10:12:41.156Z,95.03
2022-11-28T10:15:10.718Z,91.68
2022-11-28T10:17:49.665Z,94.82
2022-11-28T10:20:22.610Z,95.03
2022-11-28T10:23:02.676Z,95.75
2022-11-28T10:25:39.330Z,97.67
2022-11-28T10:28:07.810Z,89.90
2022-11-28T10:30:41.199Z,94.03
2022-11-28T10:33:13.804Z,91.68
2022-11-28T10:35:48.562Z,95.05
2022-11-28T10:38:17.177Z,95.60
2022-11-28T10:40:55.880Z,95.13
2022-11-28T10:43:36.473Z,95.30
2022-11-28T10:46:17.590Z,99.97
2022-11-28T10:49:09.094Z,83.03
2022-11-28T10:51:58.451Z,82.60
2022-11-28T10:54:40.147Z,80.18
2022-11-28T10:57:19.515Z,87.53
2022-11-28T11:00:11.783Z,90.20
2022-11-28T11:02:45.573Z,82.00
2022-11-28T11:05:16.563Z,73.70
2022-11-28T11:07:58.716Z,84.95
2022-11-28T11:10:40.752Z,82.75
2022-11-28T11:13:29.151Z,85.63
2022-11-28T11:16:09.715Z,82.95
2022-11-28T11:18:50.504Z,82.73
2022-11-28T11:21:25.845Z,70.72
2022-11-28T11:24:31.065Z,77.30
2022-11-28T11:27:30.060Z,73.30
2022-11-28T11:29:56.568Z,69.10
2022-11-28T11:32:30.508Z,69.20
2022-11-28T11:34:59.089Z,63.90
2022-11-28T11:37:31.453Z,59.50
2022-11-28T11:39:59.341Z,56.13
2022-11-28T11:42:30.577Z,66.60
2022-11-28T11:44:57.985Z,56.73
2022-11-28T11:47:41.203Z,50.33
2022-11-28T11:50:16.927Z,60.25
2022-11-28T11:52:43.480Z,47.00
2022-11-28T11:55:16.652Z,42.80
2022-11-28T11:57:55.101Z,45.93
2022-11-28T12:00:26.807Z,47.25
2022-11-28T12:03:04.651Z,47.08
2022-11-28T12:06:12.791Z,42.80
2022-11-28T12:08:39.315Z,41.63
2022-11-28T12:11:29.384Z,43.40
2022-11-28T12:14:03.429Z,41.63
2022-11-28T12:16:42.469Z,47.50
2022-11-28T12:19:36.517Z,42.15
2022-11-28T12:22:08.809Z,45.08
2022-11-28T12:25:10.630Z,38.20
2022-11-28T12:28:14.441Z,45.88
2022-11-28T12:31:18.353Z,40.22
2022-11-28T12:33:55.655Z,42.75
2022-11-28T12:36:54.569Z,35.97
2022-11-28T12:39:30.067Z,34.40
2022-11-28T12:41:59.244Z,33.03
2022-11-28T12:44:55.078Z,35.63
2022-11-28T12:47:42.890Z,38.95
2022-11-28T12:50:20.902Z,32.25
2022-11-28T12:53:07.714Z,34.27
2022-11-28T12:55:52.521Z,32.78
2022-11-28T12:58:22.703Z,37.33
2022-11-28T13:01:02.514Z,37.25
2022-11-28T13:03:36.014Z,35.30
2022-11-28T13:06:37.623Z,30.30
2022-11-28T13:09:16.393Z,35.83
2022-11-28T13:12:17.954Z,37.22
2022-11-28T13:15:03.231Z,37.78
2022-11-28T13:18:02.534Z,36.30
2022-11-28T13:20:39.118Z,40.37
2022-11-28T13:23:24.609Z,37.58
2022-11-28T13:26:05.394Z,34.60
2022-11-28T13:28:56.424Z,35.65
2022-11-28T13:31:40.606Z,34.50
2022-11-28T13:34:14.701Z,37.70
2022-11-28T13:39:54.716Z,38.33
2022-11-28T13:43:03.883Z,39.40
2022-11-28T13:45:39.186Z,43.17
2022-11-28T13:48:57.656Z,51.27
2022-11-28T13:51:30.550Z,45.45
2022-11-28T13:54:17.134Z,45.58
2022-11-28T13:56:45.977Z,43.35
2022-11-28T13:59:20.040Z,47.35
2022-11-28T14:01:52.865Z,44.97
2022-11-28T14:04:19.675Z,48.72
2022-11-28T14:06:52.194Z,48.58
2022-11-28T14:09:49.077Z,49.72
2022-11-28T14:12:32.776Z,48.72
2022-11-28T14:15:16.984Z,47.57
2022-11-28T14:17:53.524Z,53.67
2022-11-28T14:20:35.048Z,52.50
2022-11-28T14:23:26.539Z,59.08
2022-11-28T14:25:54.508Z,57.92
2022-11-28T14:28:28.488Z,65.23
2022-11-28T14:31:10.196Z,63.50
2022-11-28T14:33:40.914Z,61.45
2022-11-28T14:36:22.355Z,69.65
2022-11-28T14:39:31.981Z,61.45
2022-11-28T14:42:04.249Z,67.00
2022-11-28T14:44:55.371Z,74.13
2022-11-28T14:47:21.853Z,75.28
2022-11-28T14:49:49.237Z,67.47
2022-11-28T14:52:39.549Z,67.03
2022-11-28T14:55:12.729Z,66.97
2022-11-28T14:57:55.998Z,85.50
2022-11-28T15:00:28.379Z,69.88
2022-11-28T15:03:13.402Z,68.30
2022-11-28T15:05:46.356Z,71.80
2022-11-28T15:08:18.742Z,77.77
2022-11-28T15:10:58.078Z,81.53
2022-11-28T15:13:39.616Z,79.75
2022-11-28T15:16:10.550Z,85.88
2022-11-28T15:18:39.380Z,86.55
2022-11-28T15:21:11.321Z,76.60
2022-11-28T15:23:38.295Z,70.72
2022-11-28T15:26:05.849Z,85.15
2022-11-28T15:28:33.215Z,72.38
2022-11-28T15:31:02.552Z,74.10
2022-11-28T15:33:30.077Z,82.67
2022-11-28T15:36:00.817Z,77.75
2022-11-28T15:38:30.163Z,75.38
2022-11-28T15:40:58.964Z,80.68
2022-11-28T15:43:25.787Z,79.53
2022-11-28T15:46:20.126Z,77.63
2022-11-28T15:48:52.838Z,90.72
2022-11-28T15:51:27.084Z,79.47
2022-11-28T15:53:53.817Z,79.40
2022-11-28T15:56:20.295Z,78.57
2022-11-28T15:58:47.256Z,92.50
2022-11-28T16:01:24.924Z,92.30
2022-11-28T16:04:14.834Z,93.28
2022-11-28T16:06:44.069Z,100.10
2022-11-28T16:09:10.551Z,98.80
2022-11-28T16:11:37.154Z,101.43
2022-11-28T16:14:09.406Z,113.88
2022-11-28T16:16:38.898Z,95.63
2022-11-28T16:19:26.425Z,117.57
2022-11-28T16:21:56.956Z,106.70
2022-11-28T16:24:43.157Z,107.93
2022-11-28T16:27:25.082Z,112.78
2022-11-28T16:29:51.616Z,108.35
2022-11-28T16:32:39.627Z,93.95
2022-11-28T16:35:11.729Z,119.38
2022-11-28T16:37:38.603Z,114.70
2022-11-28T16:40:23.492Z,100.13
2022-11-28T16:42:54.023Z,92.82
2022-11-28T16:45:33.016Z,95.78
2022-11-28T16:48:02.445Z,101.03
2022-11-28T16:50:28.998Z,91.43
2022-11-28T16:52:58.883Z,98.97
2022-11-28T16:55:31.588Z,100.35
2022-11-28T16:58:07.288Z,95.22
2022-11-28T17:00:34.737Z,97.70
2022-11-28T17:03:01.609Z,96.57
2022-11-28T17:05:28.083Z,90.88
2022-11-28T17:07:54.761Z,88.43
2022-11-28T17:10:21.386Z,94.80
2022-11-28T17:12:47.897Z,109.28
2022-11-28T17:15:16.657Z,87.47
2022-11-28T17:17:43.389Z,88.22
2022-11-28T17:20:12.462Z,93.85
2022-11-28T17:22:43.965Z,98.38
2022-11-28T17:25:19.361Z,88.15
2022-11-28T17:27:47.026Z,85.77
2022-11-28T17:30:18.724Z,86.85
2022-11-28T17:32:45.622Z,82.57
2022-11-28T17:35:20.950Z,82.47
2022-11-28T17:37:47.465Z,88.93
2022-11-28T17:40:13.981Z,86.70
2022-11-28T17:42:40.476Z,92.55
2022-11-28T17:45:14.333Z,85.53
2022-11-28T17:47:40.878Z,79.78
2022-11-28T17:50:07.928Z,76.88
2022-11-28T17:52:34.453Z,74.07
2022-11-28T17:55:06.289Z,83.20
2022-11-28T17:57:34.098Z,111.68
2022-11-28T18:00:00.740Z,116.95
2022-11-28T18:02:27.632Z,116.00
2022-11-28T18:04:54.162Z,94.00
2022-11-28T18:07:20.654Z,90.25
2022-11-28T18:09:47.141Z,88.88
2022-11-28T18:12:14.004Z,72.00
2022-11-28T18:14:40.623Z,76.97
2022-11-28T18:17:07.117Z,74.43
2022-11-28T18:19:33.636Z,74.28
2022-11-28T18:22:00.092Z,84.93
2022-11-28T18:24:26.534Z,79.35
2022-11-28T18:26:53.037Z,75.30
2022-11-28T18:29:19.608Z,80.43
2022-11-28T18:31:46.058Z,81.35
2022-11-28T18:34:12.579Z,98.20
2022-11-28T18:36:40.132Z,94.25
2022-11-28T18:39:11.285Z,109.55
2022-11-28T18:41:38.032Z,81.60
2022-11-28T18:44:05.609Z,86.60
2022-11-28T18:46:33.471Z,88.50
2022-11-28T18:49:00.029Z,84.25
2022-11-28T18:51:29.077Z,92.68
2022-11-28T18:53:56.579Z,95.83
2022-11-28T18:56:23.999Z,85.55
2022-11-28T18:58:52.805Z,93.70
2022-11-28T19:01:22.653Z,92.72
2022-11-28T19:03:51.547Z,93.90
2022-11-28T19:06:18.385Z,94.07
2022-11-28T19:08:44.892Z,102.47
2022-11-28T19:11:13.910Z,109.03
2022-11-28T19:13:43.455Z,95.45
2022-11-28T19:16:19.112Z,105.45
2022-11-28T19:18:45.930Z,108.93
2022-11-28T19:21:18.258Z,117.50
2022-11-28T19:23:44.896Z,116.13
2022-11-28T19:26:13.687Z,122.65
2022-11-28T19:28:41.253Z,123.75
2022-11-28T19:31:10.890Z,102.27
2022-11-28T19:33:37.535Z,113.13
2022-11-28T19:36:06.137Z,137.38
2022-11-28T19:38:37.357Z,126.88
2022-11-28T19:41:15.465Z,131.90
2022-11-28T19:43:42.417Z,105.13
2022-11-28T19:46:09.667Z,117.22
2022-11-28T19:48:37.982Z,106.28
2022-11-28T19:51:05.101Z,121.18
2022-11-28T19:53:33.525Z,113.93
2022-11-28T19:56:04.995Z,129.63
2022-11-28T19:58:31.511Z,150.60
2022-11-28T20:01:15.410Z,117.43
2022-11-28T20:03:43.007Z,110.82
2022-11-28T20:06:11.690Z,113.63
2022-11-28T20:08:38.949Z,109.73
2022-11-28T20:11:10.379Z,107.97
2022-11-28T20:13:36.919Z,131.30
2022-11-28T20:16:05.522Z,129.73
2022-11-28T20:18:32.970Z,121.28
2022-11-28T20:21:25.514Z,166.43
2022-11-28T20:23:54.541Z,175.90
2022-11-28T20:26:23.519Z,170.20
2022-11-28T20:28:49.986Z,159.60
2022-11-28T20:31:32.171Z,141.48
2022-11-28T20:33:58.655Z,132.17
2022-11-28T20:36:27.133Z,91.80
2022-11-28T20:38:54.862Z,126.30
2022-11-28T20:41:23.321Z,109.57
2022-11-28T20:43:50.626Z,118.63
2022-11-28T20:46:31.808Z,121.87
2022-11-28T20:49:01.258Z,145.20
2022-11-28T20:51:30.140Z,160.93
2022-11-28T20:53:57.865Z,130.45
2022-11-28T20:56:27.092Z,135.75
2022-11-28T20:58:53.567Z,137.53
2022-11-28T21:01:23.111Z,146.35
2022-11-28T21:03:50.793Z,128.93
2022-11-28T21:06:18.129Z,125.57
2022-11-28T21:08:44.791Z,127.53
2022-11-28T21:11:30.633Z,127.13
2022-11-28T21:14:01.690Z,138.07
2022-11-28T21:16:30.373Z,140.18
2022-11-28T21:18:58.818Z,127.85
2022-11-28T21:21:27.595Z,139.40
2022-11-28T21:23:59.177Z,133.63
2022-11-28T21:26:41.708Z,112.47
2022-11-28T21:29:21.278Z,149.95
2022-11-28T21:31:53.682Z,123.57
2022-11-28T21:34:20.359Z,133.30
2022-11-28T21:36:47.348Z,119.90
2022-11-28T21:39:19.078Z,111.30
2022-11-28T21:41:45.893Z,108.22
2022-11-28T21:44:12.401Z,129.45
2022-11-28T21:46:38.853Z,155.25
2022-11-28T21:49:05.301Z,149.30
2022-11-28T21:51:31.724Z,157.93
2022-11-28T21:53:58.182Z,143.20
2022-11-28T21:56:25.725Z,148.68
2022-11-28T21:58:52.365Z,151.40
2022-11-28T22:01:19.307Z,145.33
2022-11-28T22:03:45.825Z,125.05
2022-11-28T22:06:23.643Z,150.90
2022-11-28T22:08:50.951Z,149.32
2022-11-28T22:11:18.597Z,151.35
2022-11-28T22:13:46.055Z,147.13
2022-11-28T22:16:15.649Z,126.20
2022-11-28T22:18:42.391Z,127.75
2022-11-28T22:21:49.443Z,119.70
2022-11-28T22:23:56.395Z,116.40
2022-11-28T22:26:22.921Z,91.63
2022-11-28T22:28:53.518Z,118.45
2022-11-28T22:31:20.972Z,98.97
2022-11-28T22:33:49.559Z,106.05
2022-11-28T22:36:18.717Z,82.57
2022-11-28T22:38:46.252Z,88.70
2022-11-28T22:41:23.359Z,93.60
2022-11-28T22:43:55.476Z,114.80
2022-11-28T22:46:22.344Z,96.90
2022-11-28T22:48:49.235Z,88.68
2022-11-28T22:51:21.517Z,97.50
2022-11-28T22:53:51.826Z,77.78
2022-11-28T22:56:18.237Z,101.63
2022-11-28T22:58:45.571Z,80.10
2022-11-28T23:01:27.331Z,74.90
2022-11-28T23:03:54.960Z,104.40
2022-11-28T23:06:27.620Z,85.90
2022-11-28T23:08:55.595Z,105.20
2022-11-28T23:11:25.682Z,75.65
2022-11-28T23:13:52.532Z,84.03
2022-11-28T23:16:21.818Z,99.90
2022-11-28T23:18:50.715Z,100.45
2022-11-28T23:21:18.377Z,94.57
2022-11-28T23:23:45.137Z,85.15
2022-11-28T23:26:23.768Z,68.18
2022-11-28T23:28:51.193Z,85.17
2022-11-28T23:31:23.282Z,86.05
2022-11-28T23:33:50.240Z,85.80
2022-11-28T23:36:28.536Z,114.13
2022-11-28T23:39:00.507Z,118.53
2022-11-28T23:41:29.330Z,110.00
2022-11-28T23:43:56.132Z,115.15
2022-11-28T23:46:23.718Z,107.55
2022-11-28T23:48:50.683Z,106.32
2022-11-28T23:51:19.209Z,118.63
2022-11-28T23:53:45.815Z,102.10
2022-11-28T23:56:33.789Z,101.45
2022-11-28T23:59:02.502Z,104.70
